Online Now
Guests 1
Members   0

24/7 FSX Server
IP: 97.89.8.204
@ KIAD until 5/25/18



Information and tools for flight simulation use only - NOT for real avaition

File Flight Plans Here

KIAD 230552Z 23010KT 10SM BKN004 OVC010 20/20 A2993 RMK AO2 SLP131 60000 T02000200 10217 20194 58018
Aviation Digital Data Service (ADDS)



Other FSX servers